Locust Gap, Pennsylvania
Current Conditions -  °F | °C
As of 10:53 PM on Monday 22 Dec 2014 (Local Time) from KSEG Reporting Station
Light Rain Light Rain  
Wind Chill: 29°   Ceiling: 500
Heat Index: 33°   Visibility: 1.7mi
Dew Point: 31°   Wind: 5mph
Humidity: 92%   Direction: 330°NNW
Pressure: 30.15"   Gusts: NA
Location:  40.77°N, 76.44°W
Report Text: KSEG 230353Z AUTO 33004KT 1 3/4SM -RA BR BKN005 OVC013 01/M01 A3015 RMK AO2 RAB0256E03B22FZRAE22 SLP214 P0003 I1000 T00061006
Loading
Personal Weather Stations






























Interactive Weather Map New forecast layout! Learn more

10-Day Weather Forecast

Advertisements
Track Severe Weather on mobile